Cowden, Illinois
Current Conditions -  °F | °C
As of 2:15 AM on Monday 26 Jan 2015 (Local Time) from K1H2 Reporting Station
Overcast Overcast  
Wind Chill: 21°   Ceiling: 1300
Heat Index: 31°   Visibility: 10mi
Dew Point: 24°   Wind: 12mph
Humidity: 76%   Direction: 300°WNW
Pressure: 29.98"   Gusts: 16mph
Location:  39.25°N, 88.86°W
Report Text: K1H2 260815Z AUTO 30010G14KT 10SM OVC013 M01/M04 A2998 RMK AO2 T10081045
Loading
Personal Weather Stations






























Interactive Weather Map New forecast layout! Learn more

10-Day Weather Forecast

Advertisements
Track Severe Weather on mobile